Terminal Aerodrome Forecast
Issued by NWS Knoxville/Tri Cities, TN

Home | Current Version | Previous Version | Text Only | Print | Product List | Glossary On
Versions: 1 2 3 4 5 6 7 8 9 10 11 12 13 14 15 16 17 18 19 20 21 22 23 24 25 26
000
FTUS44 KMRX 062014 AAA
TAFTRI
TAF AMD
KTRI 062014Z 0620/0718 VRB05KT P6SM VCTS SCT050CB BKN090
      TEMPO 0620/0621 VRB10G20KT 3SM TSRA BKN040CB
     FM070000 00000KT P6SM SCT080=

USA.gov is the U.S. government's official web portal to all federal, state and local government web resources and services.